Time;durP1;ratioP1;P1;durP2;ratioP2;P2;SDS_P1;SDS_P2;PMS_P1;PMS_P2;Temp;Humidity;BMP_temperature;BMP_pressure;BME280_temperature;BME280_humidity;BME280_pressure;Samples;Min_cycle;Max_cycle;Signal;HPM_P1;HPM_P2
2021/05/03 00:01:20;;;;;;;3.15;0.73;;;13.30;99.90;;;;;;6244296;23;20007;-82
2021/05/03 00:03:46;;;;;;;1.50;0.85;;;13.20;99.90;;;;;;6241618;23;20004;-82
2021/05/03 00:06:12;;;;;;;3.65;1.13;;;13.20;99.90;;;;;;6241501;23;20038;-83
2021/05/03 00:08:38;;;;;;;2.97;0.82;;;13.10;99.90;;;;;;6241533;23;20008;-82
2021/05/03 00:11:04;;;;;;;1.83;0.75;;;13.00;99.90;;;;;;6241170;22;20407;-84
2021/05/03 00:13:30;;;;;;;8.80;0.88;;;12.90;99.90;;;;;;6241594;23;20044;-82
2021/05/03 00:15:56;;;;;;;1.77;0.50;;;12.80;99.90;;;;;;6240830;23;20454;-82
2021/05/03 00:18:21;;;;;;;2.10;1.15;;;12.70;99.90;;;;;;6241034;23;20039;-82
2021/05/03 00:20:47;;;;;;;2.75;0.60;;;12.70;99.90;;;;;;6214998;23;20004;-83
2021/05/03 00:23:14;;;;;;;1.65;0.50;;;12.80;99.90;;;;;;6214383;23;20008;-82
2021/05/03 00:25:40;;;;;;;1.80;0.45;;;12.70;99.90;;;;;;6240855;23;20016;-84
2021/05/03 00:28:07;;;;;;;0.80;0.40;;;12.80;99.90;;;;;;6214366;23;20312;-82
2021/05/03 00:30:32;;;;;;;2.47;0.60;;;12.80;99.90;;;;;;6241438;23;20056;-82
2021/05/03 00:32:58;;;;;;;0.70;0.50;;;12.70;99.90;;;;;;6241176;23;20008;-83
2021/05/03 00:35:24;;;;;;;1.63;0.40;;;12.70;99.90;;;;;;6214746;23;20046;-84
2021/05/03 00:37:50;;;;;;;3.50;0.50;;;12.70;99.90;;;;;;6241807;23;20007;-83
2021/05/03 00:40:15;;;;;;;2.78;0.57;;;12.60;99.90;;;;;;6216096;23;20000;-85
2021/05/03 00:42:43;;;;;;;1.63;0.40;;;12.50;99.90;;;;;;6244562;23;20000;-84
2021/05/03 00:45:12;;;;;;;1.55;0.45;;;12.40;99.90;;;;;;6245339;23;20011;-85
2021/05/03 00:47:38;;;;;;;6.15;0.47;;;12.40;99.90;;;;;;6218777;23;20023;-84
2021/05/03 00:50:05;;;;;;;1.40;0.50;;;12.40;99.90;;;;;;6245415;23;20011;-84
2021/05/03 00:52:31;;;;;;;3.55;0.60;;;12.40;99.90;;;;;;6245235;23;20095;-83
2021/05/03 00:54:57;;;;;;;1.50;0.50;;;12.50;99.90;;;;;;6244913;23;20039;-84
2021/05/03 00:57:22;;;;;;;1.55;0.40;;;12.50;99.90;;;;;;6245674;23;20320;-83
2021/05/03 00:59:49;;;;;;;1.40;0.85;;;12.50;99.90;;;;;;6218534;23;20035;-85
2021/05/03 01:02:15;;;;;;;0.73;0.30;;;12.60;99.90;;;;;;6218774;23;20000;-84
2021/05/03 01:04:41;;;;;;;2.88;0.52;;;12.60;99.90;;;;;;6218419;23;20445;-84
2021/05/03 01:07:07;;;;;;;0.80;0.40;;;12.60;99.90;;;;;;6218923;23;20007;-85
2021/05/03 01:09:33;;;;;;;2.85;0.40;;;12.50;99.90;;;;;;6219985;22;20619;-84
2021/05/03 01:11:59;;;;;;;1.23;0.43;;;12.50;99.90;;;;;;6245912;23;19996;-85
2021/05/03 01:14:25;;;;;;;5.47;0.50;;;12.40;99.90;;;;;;6245593;23;20036;-85
2021/05/03 01:16:50;;;;;;;0.90;0.30;;;12.30;99.90;;;;;;6245682;23;20019;-86
2021/05/03 01:19:19;;;;;;;1.65;0.30;;;12.30;99.90;;;;;;6244215;23;20003;-86
2021/05/03 01:21:45;;;;;;;4.75;0.47;;;12.20;99.90;;;;;;6244829;23;20304;-87
2021/05/03 01:24:11;;;;;;;3.72;0.50;;;12.20;99.90;;;;;;6246241;23;20003;-87
2021/05/03 01:26:37;;;;;;;2.05;0.32;;;12.10;99.90;;;;;;6245079;23;20430;-86
2021/05/03 01:29:03;;;;;;;0.93;0.40;;;12.00;99.90;;;;;;6246279;23;20493;-88
2021/05/03 01:31:28;;;;;;;0.50;0.30;;;12.00;99.90;;;;;;6246252;23;20331;-87
2021/05/03 01:33:54;;;;;;;0.98;0.32;;;12.10;99.90;;;;;;6246204;23;20019;-85
2021/05/03 01:36:20;;;;;;;1.42;0.40;;;12.00;99.90;;;;;;6246389;23;20003;-88
2021/05/03 01:38:45;;;;;;;1.25;0.50;;;12.00;99.90;;;;;;6246821;23;20028;-86
2021/05/03 01:41:11;;;;;;;4.57;0.40;;;12.00;99.90;;;;;;6246589;23;20000;-87
2021/05/03 01:43:37;;;;;;;2.88;0.40;;;12.00;99.90;;;;;;6246205;23;20031;-89
2021/05/03 01:46:03;;;;;;;2.55;0.38;;;11.90;99.90;;;;;;6246824;23;20003;-86
2021/05/03 01:48:31;;;;;;;0.25;0.25;;;11.80;99.90;;;;;;6246671;23;20011;-88
2021/05/03 01:50:58;;;;;;;2.83;0.50;;;11.80;99.90;;;;;;6247006;23;20042;-86
2021/05/03 01:53:24;;;;;;;;;;;11.80;99.90;;;;;;6247058;23;20004;-90
2021/05/03 01:55:55;;;;;;;1.02;0.40;;;11.70;99.90;;;;;;6246663;22;19900;-88
2021/05/03 01:58:23;;;;;;;1.25;0.65;;;11.70;99.90;;;;;;6245279;23;20027;-87
2021/05/03 02:00:49;;;;;;;2.05;0.50;;;11.60;99.90;;;;;;6246153;23;20590;-86
2021/05/03 02:03:26;;;;;;;1.30;0.40;;;11.70;99.90;;;;;;6245709;23;20007;-84
2021/05/03 02:05:52;;;;;;;1.60;0.50;;;11.70;99.90;;;;;;6243246;23;20618;-84
2021/05/03 02:08:18;;;;;;;0.53;0.40;;;11.70;99.90;;;;;;6244600;22;20377;-83
2021/05/03 02:10:44;;;;;;;2.45;0.30;;;11.70;99.90;;;;;;6244856;22;20012;-83
2021/05/03 02:13:11;;;;;;;1.30;0.50;;;11.70;99.90;;;;;;6244711;23;20363;-83
2021/05/03 02:15:37;;;;;;;1.50;0.50;;;11.60;99.90;;;;;;6244589;23;20034;-83
2021/05/03 02:18:03;;;;;;;0.70;0.40;;;11.60;99.90;;;;;;6244857;23;19996;-83
2021/05/03 02:20:31;;;;;;;0.30;0.30;;;11.70;99.90;;;;;;6217998;23;20486;-83
2021/05/03 02:22:57;;;;;;;0.40;0.30;;;11.70;99.90;;;;;;6217951;23;20007;-83
2021/05/03 02:25:22;;;;;;;1.23;0.30;;;11.80;99.90;;;;;;6244580;23;19996;-85
2021/05/03 02:27:48;;;;;;;0.68;0.40;;;11.80;99.90;;;;;;6218480;23;20075;-84
2021/05/03 02:30:16;;;;;;;3.10;0.32;;;11.90;99.90;;;;;;6244615;23;20004;-83
2021/05/03 02:32:42;;;;;;;0.30;0.30;;;11.90;99.90;;;;;;6244680;23;20012;-83
2021/05/03 02:35:11;;;;;;;0.50;0.30;;;11.90;99.90;;;;;;6244541;23;19996;-84
2021/05/03 02:37:38;;;;;;;0.30;0.30;;;11.90;99.90;;;;;;6244701;23;20032;-82
2021/05/03 02:40:04;;;;;;;0.30;0.30;;;11.90;99.90;;;;;;6244160;23;20002;-83
2021/05/03 02:42:31;;;;;;;0.40;0.40;;;11.90;99.90;;;;;;6244611;23;20267;-83
2021/05/03 02:44:57;;;;;;;0.87;0.50;;;11.90;99.90;;;;;;6244041;23;20012;-83
2021/05/03 02:47:23;;;;;;;0.50;0.50;;;11.80;99.90;;;;;;6217773;23;20031;-83
2021/05/03 02:49:48;;;;;;;2.67;0.40;;;11.60;99.90;;;;;;6244370;23;20007;-83
2021/05/03 02:52:14;;;;;;;0.30;0.30;;;11.50;99.90;;;;;;6244483;23;20555;-84
2021/05/03 02:54:40;;;;;;;0.47;0.30;;;11.30;99.90;;;;;;6218514;23;20008;-81
2021/05/03 02:57:06;;;;;;;0.30;0.30;;;11.30;99.90;;;;;;6219807;23;20343;-84
2021/05/03 02:59:31;;;;;;;0.38;0.30;;;11.20;99.90;;;;;;6245926;23;20621;-81
2021/05/03 03:01:57;;;;;;;0.20;0.20;;;11.10;99.90;;;;;;6246426;23;20059;-83
2021/05/03 03:04:23;;;;;;;2.67;0.40;;;11.10;99.90;;;;;;6246134;23;20004;-83
2021/05/03 03:06:48;;;;;;;4.60;0.38;;;11.00;99.90;;;;;;6246539;23;19996;-83
2021/05/03 03:09:14;;;;;;;0.30;0.30;;;10.90;99.90;;;;;;6218985;22;20490;-82
2021/05/03 03:11:44;;;;;;;0.57;0.30;;;10.90;99.90;;;;;;6219218;23;20492;-80
2021/05/03 03:14:10;;;;;;;0.73;0.30;;;10.90;99.90;;;;;;6245394;23;20439;-83
2021/05/03 03:16:36;;;;;;;0.30;0.20;;;10.80;99.90;;;;;;6246095;23;20001;-83
2021/05/03 03:19:02;;;;;;;1.13;0.40;;;10.80;99.90;;;;;;6245884;23;20004;-83
2021/05/03 03:21:28;;;;;;;2.53;0.40;;;10.80;99.90;;;;;;6219174;23;20004;-83
2021/05/03 03:23:54;;;;;;;2.73;0.40;;;10.80;99.90;;;;;;6245643;23;19997;-82
2021/05/03 03:26:20;;;;;;;0.38;0.38;;;10.80;99.90;;;;;;6245848;23;20004;-83
2021/05/03 03:28:46;;;;;;;0.40;0.40;;;10.80;99.90;;;;;;6246367;23;19996;-82
2021/05/03 03:31:12;;;;;;;0.43;0.43;;;10.70;99.90;;;;;;6245995;23;20415;-83
2021/05/03 03:33:37;;;;;;;3.88;0.52;;;10.80;99.90;;;;;;6218719;23;20012;-81
2021/05/03 03:36:05;;;;;;;0.60;0.60;;;10.70;99.90;;;;;;6218803;23;20004;-84
2021/05/03 03:38:31;;;;;;;0.85;0.30;;;10.70;99.90;;;;;;6246017;23;20004;-84
2021/05/03 03:40:57;;;;;;;0.20;0.20;;;10.80;99.90;;;;;;6246431;23;20138;-84
2021/05/03 03:43:23;;;;;;;0.50;0.50;;;10.90;99.90;;;;;;6219163;23;20399;-84
2021/05/03 03:45:49;;;;;;;0.47;0.40;;;10.90;99.90;;;;;;6244173;23;20000;-86
2021/05/03 03:48:14;;;;;;;0.50;0.50;;;11.00;99.90;;;;;;6243000;23;20007;-85
2021/05/03 03:50:40;;;;;;;0.40;0.40;;;11.00;99.90;;;;;;6216622;23;20366;-83
2021/05/03 03:53:06;;;;;;;1.30;0.50;;;11.00;99.90;;;;;;6243099;23;20012;-83
2021/05/03 03:55:31;;;;;;;0.30;0.30;;;11.00;99.90;;;;;;6243218;23;20006;-83
2021/05/03 03:57:57;;;;;;;0.65;0.38;;;11.00;99.90;;;;;;6243093;23;20489;-82
2021/05/03 04:00:23;;;;;;;0.30;0.30;;;10.90;99.90;;;;;;6243382;23;20425;-82
2021/05/03 04:02:50;;;;;;;0.30;0.30;;;10.90;99.90;;;;;;6245054;23;20007;-83
2021/05/03 04:08:09;;;;;;;0.30;0.30;;;10.80;99.90;;;;;;6245067;23;20015;-83
2021/05/03 04:26:26;;;;;;;5.97;0.40;;;10.80;99.90;;;;;;6245307;23;20035;-83
2021/05/03 04:28:53;;;;;;;2.90;0.30;;;10.80;99.90;;;;;;6217567;23;20000;-82
2021/05/03 04:31:21;;;;;;;0.90;0.40;;;10.80;99.90;;;;;;6217690;23;20014;-82
2021/05/03 04:33:47;;;;;;;;;;;10.90;99.90;;;;;;6245327;23;20013;-83
2021/05/03 04:36:13;;;;;;;2.53;0.40;;;10.80;99.90;;;;;;6244707;23;19899;-83
2021/05/03 04:38:39;;;;;;;3.45;0.65;;;10.80;99.90;;;;;;6217606;23;20000;-82
2021/05/03 04:41:05;;;;;;;1.10;0.33;;;10.80;99.90;;;;;;6245085;23;20004;-81
2021/05/03 04:43:31;;;;;;;1.63;0.40;;;10.80;99.90;;;;;;6244507;23;20079;-85
2021/05/03 04:45:57;;;;;;;1.75;0.40;;;10.80;99.90;;;;;;6244833;23;20477;-83
2021/05/03 04:48:23;;;;;;;1.52;0.40;;;10.90;99.90;;;;;;6219214;23;19996;-83
2021/05/03 04:50:49;;;;;;;0.90;0.40;;;10.90;99.90;;;;;;6244576;23;20000;-81
2021/05/03 04:53:15;;;;;;;0.50;0.30;;;11.00;99.90;;;;;;6244029;23;20058;-81
2021/05/03 04:55:41;;;;;;;3.03;0.30;;;11.00;99.90;;;;;;6244236;23;20075;-80
2021/05/03 04:58:06;;;;;;;0.30;0.30;;;11.00;99.90;;;;;;6244207;23;20032;-80
2021/05/03 05:00:32;;;;;;;1.40;0.40;;;11.00;99.90;;;;;;6243911;23;19996;-80
2021/05/03 05:02:58;;;;;;;0.65;0.30;;;11.10;99.90;;;;;;6244306;23;20000;-82
2021/05/03 05:05:27;;;;;;;0.30;0.30;;;11.00;99.90;;;;;;6243701;23;19996;-80
2021/05/03 05:07:53;;;;;;;1.33;0.50;;;11.00;99.90;;;;;;6217468;23;20030;-80
2021/05/03 05:10:18;;;;;;;0.45;0.40;;;11.10;99.90;;;;;;6243424;22;20016;-80
2021/05/03 05:12:44;;;;;;;1.50;0.60;;;11.20;99.90;;;;;;6243906;23;20015;-80
2021/05/03 05:15:10;;;;;;;0.60;0.30;;;11.20;99.90;;;;;;6243729;23;20087;-80
2021/05/03 05:17:37;;;;;;;0.75;0.40;;;11.20;99.90;;;;;;6243439;23;19996;-80
2021/05/03 05:20:04;;;;;;;0.85;0.50;;;11.30;99.90;;;;;;6243889;23;20008;-79
2021/05/03 05:22:30;;;;;;;0.60;0.57;;;11.40;99.90;;;;;;6243730;23;20082;-80
2021/05/03 05:24:55;;;;;;;0.43;0.40;;;11.50;99.90;;;;;;6243065;23;20004;-80
2021/05/03 05:27:22;;;;;;;0.65;0.35;;;11.60;99.90;;;;;;6243944;23;20336;-80
2021/05/03 05:29:48;;;;;;;1.70;0.83;;;11.80;99.90;;;;;;6241823;23;20007;-79
2021/05/03 05:32:13;;;;;;;0.20;0.20;;;11.90;99.90;;;;;;6243484;23;20000;-80
2021/05/03 05:34:39;;;;;;;0.40;0.40;;;11.90;99.90;;;;;;6243932;23;20012;-80
2021/05/03 05:37:05;;;;;;;0.40;0.40;;;11.90;99.90;;;;;;6244127;23;19992;-80
2021/05/03 05:39:31;;;;;;;0.40;0.40;;;11.90;99.90;;;;;;6243852;23;20007;-80
2021/05/03 05:41:56;;;;;;;0.70;0.55;;;11.90;99.90;;;;;;6217101;23;20004;-80
2021/05/03 05:44:22;;;;;;;0.75;0.60;;;11.90;99.90;;;;;;6216971;23;20024;-80
2021/05/03 05:46:48;;;;;;;0.82;0.82;;;11.70;99.90;;;;;;6217430;23;20015;-80
2021/05/03 05:49:14;;;;;;;3.08;0.50;;;11.60;99.90;;;;;;6243488;23;19996;-81
2021/05/03 05:51:40;;;;;;;0.25;0.25;;;11.60;99.90;;;;;;6243777;23;20101;-81
2021/05/03 05:54:06;;;;;;;0.32;0.32;;;11.70;99.90;;;;;;6214797;23;20439;-82
2021/05/03 05:56:32;;;;;;;13.10;0.88;;;11.70;99.90;;;;;;6241719;23;20001;-80
2021/05/03 05:58:58;;;;;;;0.55;0.40;;;11.80;99.90;;;;;;6215762;23;20046;-79
2021/05/03 06:01:24;;;;;;;0.50;0.45;;;11.90;99.90;;;;;;6242943;23;20077;-79
2021/05/03 06:03:50;;;;;;;0.50;0.45;;;12.00;99.90;;;;;;6242951;23;20000;-83
2021/05/03 06:06:16;;;;;;;1.25;0.40;;;11.90;99.90;;;;;;6216278;23;20004;-80
2021/05/03 06:08:42;;;;;;;0.43;0.40;;;11.90;99.90;;;;;;6243040;23;20446;-79
2021/05/03 06:11:08;;;;;;;0.40;0.40;;;12.00;99.90;;;;;;6243441;22;20039;-81
2021/05/03 06:13:34;;;;;;;1.17;0.70;;;12.00;99.90;;;;;;6243102;23;20016;-79
2021/05/03 06:16:01;;;;;;;0.70;0.40;;;12.00;99.90;;;;;;6216644;23;20008;-81
2021/05/03 06:18:27;;;;;;;0.30;0.30;;;12.00;99.90;;;;;;6243495;23;20431;-80
2021/05/03 06:20:52;;;;;;;1.08;0.80;;;12.10;99.90;;;;;;6243238;23;19996;-79
2021/05/03 06:23:18;;;;;;;2.22;0.50;;;12.20;99.90;;;;;;6243359;23;20000;-78
2021/05/03 06:25:44;;;;;;;0.80;0.60;;;12.30;99.90;;;;;;6243163;23;19997;-79
2021/05/03 06:28:10;;;;;;;0.50;0.50;;;12.50;99.90;;;;;;6243212;23;20091;-86
2021/05/03 06:30:36;;;;;;;1.30;0.40;;;12.60;99.90;;;;;;6243472;23;20003;-78
2021/05/03 06:33:03;;;;;;;3.72;0.63;;;12.70;99.90;;;;;;6243279;23;20012;-80
2021/05/03 06:35:28;;;;;;;1.77;1.00;;;12.60;99.90;;;;;;6243102;23;20002;-85
2021/05/03 06:37:54;;;;;;;3.90;0.75;;;12.60;99.90;;;;;;6243752;23;20003;-84
2021/05/03 06:40:20;;;;;;;1.70;0.60;;;12.60;99.90;;;;;;6243660;23;20018;-83
2021/05/03 06:42:48;;;;;;;0.97;0.57;;;12.70;99.90;;;;;;6217499;23;20008;-82
2021/05/03 06:45:23;;;;;;;0.40;0.40;;;12.90;99.90;;;;;;6243348;23;20000;-85
2021/05/03 06:47:50;;;;;;;0.40;0.40;;;13.10;99.90;;;;;;6243669;23;20004;-82
2021/05/03 06:50:18;;;;;;;3.05;0.60;;;13.30;99.90;;;;;;6243598;23;19996;-82
2021/05/03 06:52:46;;;;;;;0.90;0.55;;;13.30;99.90;;;;;;6243413;23;20449;-82
2021/05/03 06:55:14;;;;;;;1.05;0.50;;;13.50;99.90;;;;;;6242883;23;20478;-84
2021/05/03 06:57:40;;;;;;;;;;;13.60;99.90;;;;;;6244022;23;20148;-81
2021/05/03 07:00:07;;;;;;;0.32;0.32;;;13.70;99.90;;;;;;6216780;23;19899;-88
2021/05/03 07:02:33;;;;;;;;;;;13.70;99.90;;;;;;6243964;23;20001;-83
2021/05/03 07:04:58;;;;;;;0.50;0.40;;;13.60;99.90;;;;;;6243188;23;19906;-84
2021/05/03 07:07:24;;;;;;;0.40;0.40;;;13.60;99.90;;;;;;6243584;23;20075;-84
2021/05/03 07:09:50;;;;;;;0.60;0.32;;;13.60;99.90;;;;;;6221239;23;20028;-85
2021/05/03 07:12:21;;;;;;;1.27;0.43;;;13.70;99.90;;;;;;6241854;23;20000;-84
2021/05/03 07:14:47;;;;;;;0.50;0.47;;;13.90;99.90;;;;;;6243328;23;20091;-83
2021/05/03 07:17:13;;;;;;;0.47;0.47;;;14.20;99.90;;;;;;6242173;23;20007;-85
2021/05/03 07:19:39;;;;;;;0.47;0.47;;;14.40;99.60;;;;;;6243063;23;20375;-83
2021/05/03 07:22:07;;;;;;;0.43;0.43;;;14.60;99.70;;;;;;6242096;23;19996;-82
2021/05/03 07:24:33;;;;;;;;;;;14.80;98.10;;;;;;6243533;23;20011;-84
2021/05/03 07:26:59;;;;;;;3.88;0.47;;;14.70;98.60;;;;;;6243519;22;20281;-84
2021/05/03 07:29:25;;;;;;;1.38;0.77;;;14.70;98.10;;;;;;6243223;23;20028;-83
2021/05/03 07:31:50;;;;;;;1.20;0.50;;;14.70;99.30;;;;;;6243270;23;20469;-84
2021/05/03 07:34:17;;;;;;;1.52;0.40;;;14.90;98.40;;;;;;6242652;23;20067;-82
2021/05/03 07:36:43;;;;;;;2.60;0.40;;;15.00;98.10;;;;;;6243378;23;19996;-83
2021/05/03 07:39:09;;;;;;;0.40;0.40;;;15.00;98.80;;;;;;6241439;23;20014;-85
2021/05/03 07:41:35;;;;;;;5.75;0.55;;;15.10;98.10;;;;;;6245120;23;20031;-82
2021/05/03 07:44:02;;;;;;;0.40;0.30;;;15.10;97.00;;;;;;6245211;23;20011;-83
2021/05/03 07:46:28;;;;;;;0.60;0.43;;;15.00;98.00;;;;;;6245105;23;20553;-84
2021/05/03 07:48:56;;;;;;;1.10;0.90;;;14.90;98.00;;;;;;6245263;23;20027;-84
2021/05/03 07:51:22;;;;;;;1.92;0.40;;;14.70;97.80;;;;;;6245765;23;20314;-87
2021/05/03 07:53:48;;;;;;;0.73;0.50;;;14.70;97.80;;;;;;6247319;23;20016;-90
2021/05/03 07:56:15;;;;;;;0.65;0.40;;;14.70;99.30;;;;;;6249238;23;19997;-91
2021/05/03 07:58:42;;;;;;;1.48;0.40;;;14.80;97.00;;;;;;6248753;23;20099;-93
2021/05/03 08:01:08;;;;;;;4.07;0.40;;;14.90;97.30;;;;;;6249560;23;20230;-90
2021/05/03 08:03:39;;;;;;;0.32;0.32;;;14.90;97.20;;;;;;6247544;23;20004;-90
2021/05/03 08:06:06;;;;;;;1.40;0.50;;;14.90;97.70;;;;;;6248301;23;19997;-89
2021/05/03 08:08:32;;;;;;;;;;;15.00;98.00;;;;;;6250666;23;20126;-91
2021/05/03 08:10:58;;;;;;;0.93;0.50;;;15.10;97.20;;;;;;6249047;22;19938;-89
2021/05/03 08:13:26;;;;;;;1.95;0.60;;;15.20;97.60;;;;;;6248268;23;20042;-92
2021/05/03 08:15:53;;;;;;;0.43;0.40;;;15.30;97.30;;;;;;6248380;23;20486;-89
2021/05/03 08:18:19;;;;;;;0.93;0.50;;;15.30;96.20;;;;;;6249955;23;20427;-93
2021/05/03 08:20:44;;;;;;;1.02;0.40;;;15.40;97.40;;;;;;6249296;23;20075;-93
2021/05/03 08:23:12;;;;;;;1.30;0.52;;;15.50;96.80;;;;;;6245813;23;20000;-85
2021/05/03 08:25:38;;;;;;;0.60;0.50;;;15.50;96.30;;;;;;6244635;23;20008;-84
2021/05/03 08:28:04;;;;;;;0.70;0.60;;;15.60;95.60;;;;;;6244835;23;20008;-83
2021/05/03 08:30:30;;;;;;;1.13;0.55;;;15.60;95.40;;;;;;6242445;23;20000;-82
2021/05/03 08:32:56;;;;;;;0.45;0.45;;;15.50;96.30;;;;;;6214602;23;20065;-85
2021/05/03 08:35:21;;;;;;;3.03;0.63;;;15.60;95.80;;;;;;6242282;23;20140;-84
2021/05/03 08:37:47;;;;;;;0.88;0.60;;;15.60;94.90;;;;;;6242704;23;20001;-83
2021/05/03 08:40:14;;;;;;;1.95;0.40;;;15.60;95.70;;;;;;6241679;23;20526;-84
2021/05/03 08:42:41;;;;;;;0.82;0.52;;;15.70;96.10;;;;;;6242699;23;20028;-85
2021/05/03 08:45:08;;;;;;;1.05;0.40;;;15.80;95.40;;;;;;6241889;23;20015;-85
2021/05/03 08:47:36;;;;;;;0.60;0.38;;;15.90;95.70;;;;;;6242650;23;20050;-84
2021/05/03 08:50:09;;;;;;;1.17;0.52;;;15.90;94.90;;;;;;6241820;23;20435;-84
2021/05/03 08:52:41;;;;;;;0.70;0.60;;;15.90;94.50;;;;;;6241860;23;20035;-84
2021/05/03 08:55:10;;;;;;;0.70;0.50;;;16.00;95.30;;;;;;6241722;23;20082;-83
2021/05/03 08:57:36;;;;;;;1.65;0.50;;;16.10;94.90;;;;;;6241617;23;20011;-85
2021/05/03 09:00:04;;;;;;;0.47;0.40;;;16.20;94.00;;;;;;6214311;23;20000;-84
2021/05/03 09:02:31;;;;;;;1.50;0.50;;;16.10;95.20;;;;;;6241564;23;20079;-84
2021/05/03 09:04:57;;;;;;;0.93;0.50;;;16.20;94.10;;;;;;6214638;23;20027;-82
2021/05/03 09:07:22;;;;;;;0.60;0.50;;;16.20;94.10;;;;;;6241467;23;20073;-83
2021/05/03 09:09:52;;;;;;;1.88;0.70;;;16.20;94.10;;;;;;6243884;22;20031;-83
2021/05/03 09:12:22;;;;;;;1.30;0.65;;;16.30;95.40;;;;;;6242010;23;20100;-84
2021/05/03 09:14:51;;;;;;;0.50;0.43;;;16.30;94.60;;;;;;6214760;23;20057;-85
2021/05/03 09:17:41;;;;;;;0.68;0.40;;;16.40;94.30;;;;;;6242094;23;20071;-82
2021/05/03 09:20:11;;;;;;;0.60;0.45;;;16.40;94.70;;;;;;6214913;23;20010;-85
2021/05/03 09:22:48;;;;;;;0.45;0.38;;;16.50;95.60;;;;;;6215138;23;20011;-83
2021/05/03 09:25:30;;;;;;;0.40;0.40;;;16.60;94.80;;;;;;6241062;23;20304;-84
2021/05/03 09:28:11;;;;;;;3.05;0.60;;;16.70;93.40;;;;;;6215186;23;20477;-84
2021/05/03 09:30:48;;;;;;;0.70;0.50;;;16.70;94.20;;;;;;6241330;23;20582;-83
2021/05/03 09:33:18;;;;;;;2.05;1.17;;;16.70;92.80;;;;;;6241522;23;20456;-85
2021/05/03 09:35:49;;;;;;;0.70;0.50;;;16.70;92.40;;;;;;6214340;23;20012;-86
2021/05/03 09:38:39;;;;;;;0.55;0.45;;;16.80;93.20;;;;;;6240422;23;20386;-83
2021/05/03 09:41:27;;;;;;;0.70;0.43;;;16.90;93.10;;;;;;6242598;23;20030;-84
2021/05/03 09:44:06;;;;;;;0.75;0.60;;;17.00;92.20;;;;;;6241389;23;20063;-83
2021/05/03 09:46:50;;;;;;;0.43;0.43;;;17.10;91.20;;;;;;6213117;23;20042;-82
2021/05/03 09:49:20;;;;;;;1.25;0.40;;;17.20;91.30;;;;;;6240792;23;20004;-84
2021/05/03 09:51:49;;;;;;;0.95;0.40;;;17.30;90.60;;;;;;6240806;23;20075;-82
2021/05/03 09:54:17;;;;;;;2.28;0.60;;;17.30;88.90;;;;;;6213489;23;20089;-83
2021/05/03 09:57:06;;;;;;;0.30;0.30;;;17.40;90.50;;;;;;6240754;23;20004;-83
2021/05/03 09:59:50;;;;;;;0.47;0.47;;;17.40;91.60;;;;;;6240917;23;20004;-84
2021/05/03 10:02:27;;;;;;;3.60;0.55;;;17.50;90.80;;;;;;6240789;23;20054;-83
2021/05/03 10:04:55;;;;;;;1.00;0.50;;;17.50;89.80;;;;;;6240749;23;20083;-82
2021/05/03 10:07:23;;;;;;;0.50;0.50;;;17.50;90.20;;;;;;6241143;23;20027;-83
2021/05/03 10:09:54;;;;;;;2.38;0.60;;;17.60;90.80;;;;;;6240466;22;20427;-82
2021/05/03 10:12:20;;;;;;;0.50;0.50;;;17.70;91.20;;;;;;6240870;23;20067;-84
2021/05/03 10:14:49;;;;;;;2.28;0.57;;;17.70;90.00;;;;;;6240578;23;20439;-83
2021/05/03 10:17:17;;;;;;;3.60;0.40;;;17.80;88.40;;;;;;6240430;23;20704;-83
2021/05/03 10:19:44;;;;;;;0.40;0.40;;;17.80;89.00;;;;;;6240678;23;20000;-84
2021/05/03 10:22:21;;;;;;;1.13;0.43;;;17.90;89.80;;;;;;6241460;23;20004;-84
2021/05/03 10:24:51;;;;;;;1.60;0.50;;;18.00;89.20;;;;;;6243368;23;20182;-83
2021/05/03 10:27:20;;;;;;;2.05;0.70;;;18.10;90.10;;;;;;6242283;23;20459;-83
2021/05/03 10:29:47;;;;;;;0.77;0.50;;;18.10;88.60;;;;;;6240862;23;20027;-83
2021/05/03 10:32:20;;;;;;;0.70;0.60;;;18.10;85.90;;;;;;6195168;23;20008;-82
2021/05/03 10:34:52;;;;;;;0.70;0.40;;;18.10;87.50;;;;;;6235729;23;20031;-82
2021/05/03 10:37:34;;;;;;;0.85;0.50;;;18.20;86.30;;;;;;6235977;23;20083;-83
2021/05/03 10:40:05;;;;;;;2.88;0.50;;;18.20;86.40;;;;;;6187962;23;20531;-82
2021/05/03 10:42:32;;;;;;;1.88;0.43;;;18.20;86.90;;;;;;6238946;23;20016;-82
2021/05/03 10:45:19;;;;;;;0.40;0.40;;;18.30;90.10;;;;;;6240684;23;20003;-80
2021/05/03 10:47:49;;;;;;;3.22;0.40;;;18.40;86.40;;;;;;6215873;23;20004;-89
2021/05/03 10:50:41;;;;;;;3.70;0.82;;;18.50;86.90;;;;;;6250229;23;20046;-86
2021/05/03 10:53:20;;;;;;;2.08;0.68;;;18.60;87.50;;;;;;6252236;23;20060;-85
2021/05/03 10:56:06;;;;;;;2.30;0.55;;;18.60;90.30;;;;;;6217605;23;20066;-81
2021/05/03 10:58:52;;;;;;;0.47;0.40;;;18.80;87.60;;;;;;6246868;23;20008;-79
2021/05/03 11:01:18;;;;;;;2.90;0.80;;;18.90;83.00;;;;;;6241160;23;20004;-81
2021/05/03 11:03:59;;;;;;;1.07;0.43;;;19.00;88.20;;;;;;6241555;23;20423;-82
2021/05/03 11:06:37;;;;;;;0.60;0.50;;;19.10;84.50;;;;;;6242070;23;20231;-84
2021/05/03 11:09:21;;;;;;;;;;;19.10;84.60;;;;;;6247190;23;20386;-85
2021/05/03 11:11:46;;;;;;;3.00;0.80;;;19.20;85.50;;;;;;6241851;23;19947;-83
2021/05/03 11:14:15;;;;;;;10.27;0.85;;;19.30;83.80;;;;;;6241904;23;20015;-84
2021/05/03 11:16:45;;;;;;;1.75;0.50;;;19.40;84.70;;;;;;6217450;23;20381;-84
2021/05/03 11:22:22;;;;;;;1.40;0.70;;;19.80;83.20;;;;;;6244732;23;20011;-80
2021/05/03 11:27:47;;;;;;;0.63;0.52;;;20.10;85.50;;;;;;6236701;23;20450;-78
2021/05/03 11:30:30;;;;;;;0.60;0.60;;;20.50;82.20;;;;;;6240726;23;20123;-80
2021/05/03 11:33:02;;;;;;;2.38;0.60;;;20.50;74.20;;;;;;6241970;23;20035;-80
2021/05/03 11:46:25;;;;;;;0.63;0.47;;;20.60;76.10;;;;;;6239330;23;20458;-87
2021/05/03 11:48:56;;;;;;;3.40;0.68;;;20.50;75.00;;;;;;6212261;23;20008;-86
2021/05/03 11:51:22;;;;;;;0.47;0.38;;;20.60;76.20;;;;;;6242338;23;20004;-88
2021/05/03 11:53:49;;;;;;;1.02;0.95;;;20.60;72.30;;;;;;6220248;23;20103;-90
2021/05/03 11:56:14;;;;;;;1.90;0.57;;;20.50;73.50;;;;;;6221068;23;20008;-91
2021/05/03 11:58:42;;;;;;;0.60;0.52;;;20.70;77.10;;;;;;6247618;23;20010;-92
2021/05/03 12:01:18;;;;;;;0.60;0.40;;;20.80;73.20;;;;;;6249964;23;20024;-93
2021/05/03 12:03:50;;;;;;;1.00;0.47;;;20.80;72.50;;;;;;6243762;23;20066;-91
2021/05/03 12:06:33;;;;;;;0.98;0.43;;;21.70;74.00;;;;;;6216212;23;20136;-87
2021/05/03 12:09:10;;;;;;;1.15;0.50;;;25.00;61.30;;;;;;6213929;23;20007;-86
2021/05/03 12:11:37;;;;;;;1.85;0.60;;;28.20;59.40;;;;;;6237722;22;20023;-85
2021/05/03 12:14:04;;;;;;;15.52;1.85;;;30.90;46.60;;;;;;6239413;23;20016;-85
2021/05/03 12:16:35;;;;;;;0.57;0.50;;;33.00;39.00;;;;;;6238959;23;21110;-85
2021/05/03 12:19:08;;;;;;;0.40;0.40;;;34.00;33.30;;;;;;6240527;23;20008;-87
2021/05/03 12:21:34;;;;;;;4.90;0.70;;;34.60;34.20;;;;;;6241359;23;20008;-87
2021/05/03 12:24:15;;;;;;;1.02;0.73;;;35.40;33.20;;;;;;6240961;23;20375;-83
2021/05/03 12:26:53;;;;;;;0.70;0.70;;;36.90;33.20;;;;;;6238369;23;20004;-85
2021/05/03 12:29:19;;;;;;;1.05;0.93;;;37.90;29.60;;;;;;6237279;23;20008;-84
2021/05/03 12:31:45;;;;;;;1.83;0.55;;;38.40;28.10;;;;;;6236423;23;20034;-82
2021/05/03 12:34:16;;;;;;;1.30;0.80;;;38.40;28.40;;;;;;6233959;23;19996;-84
2021/05/03 12:37:19;;;;;;;1.25;0.52;;;39.00;26.60;;;;;;6239044;23;20506;-83
2021/05/03 12:39:59;;;;;;;1.15;0.40;;;39.30;26.30;;;;;;6236247;22;20031;-84
2021/05/03 12:42:34;;;;;;;1.02;0.57;;;39.40;25.60;;;;;;6239424;23;20039;-83
2021/05/03 12:45:26;;;;;;;0.50;0.50;;;39.70;25.10;;;;;;6237039;23;20010;-82
2021/05/03 12:53:57;;;;;;;1.10;0.70;;;40.40;24.30;;;;;;6237619;23;20011;-83
2021/05/03 13:29:02;;;;;;;0.70;0.50;;;42.60;22.30;;;;;;6241104;23;20062;-82
2021/05/03 13:31:30;;;;;;;0.82;0.55;;;42.80;22.90;;;;;;6242893;23;19992;-90
2021/05/03 13:33:56;;;;;;;2.83;0.32;;;41.60;22.70;;;;;;6224225;23;20118;-86
2021/05/03 13:36:22;;;;;;;3.25;0.55;;;40.90;23.10;;;;;;6213083;23;20004;-86
2021/05/03 13:38:49;;;;;;;;;;;41.00;23.10;;;;;;6241799;23;20008;-87
2021/05/03 13:41:16;;;;;;;1.15;0.60;;;40.70;22.80;;;;;;6240558;23;20480;-85
2021/05/03 13:43:42;;;;;;;0.70;0.60;;;41.00;23.60;;;;;;6240578;23;20016;-88
2021/05/03 13:46:07;;;;;;;;;;;41.30;22.90;;;;;;6238429;23;20023;-85
2021/05/03 13:48:33;;;;;;;0.55;0.43;;;40.60;21.70;;;;;;6239719;23;19903;-90
2021/05/03 13:50:58;;;;;;;;;;;40.60;22.80;;;;;;6238447;23;20484;-89
2021/05/03 13:53:24;;;;;;;0.43;0.35;;;41.20;23.20;;;;;;6238441;23;20004;-86
2021/05/03 13:55:52;;;;;;;2.63;0.52;;;41.60;23.10;;;;;;6242481;23;20039;-90
2021/05/03 13:58:18;;;;;;;2.40;0.60;;;41.60;20.70;;;;;;6242147;23;20004;-91
2021/05/03 14:00:43;;;;;;;;;;;41.00;23.50;;;;;;6241999;23;20083;-87
2021/05/03 14:03:09;;;;;;;0.45;0.40;;;41.70;23.40;;;;;;6244483;23;20114;-85
2021/05/03 14:05:35;;;;;;;0.65;0.40;;;41.80;20.00;;;;;;6241367;23;20008;-89
2021/05/03 14:08:01;;;;;;;3.08;0.40;;;42.10;22.00;;;;;;6248165;23;20000;-90
2021/05/03 14:10:26;;;;;;;0.77;0.60;;;41.50;20.30;;;;;;6229789;22;20027;-90